sensor_id;sensor_type;location;lat;lon;timestamp;P1;durP1;ratioP1;P2;durP2;ratioP2
72261;SDS011;60173;52.112;8.648;2023-03-07T00:00:43;45.97;;;22.10;;
72261;SDS011;60173;52.112;8.648;2023-03-07T00:03:10;42.67;;;21.92;;
72261;SDS011;60173;52.112;8.648;2023-03-07T00:05:38;44.47;;;22.17;;
72261;SDS011;60173;52.112;8.648;2023-03-07T00:08:04;43.80;;;21.27;;
72261;SDS011;60173;52.112;8.648;2023-03-07T00:10:31;43.58;;;20.75;;
72261;SDS011;60173;52.112;8.648;2023-03-07T00:12:58;45.13;;;21.50;;
72261;SDS011;60173;52.112;8.648;2023-03-07T00:15:24;41.13;;;20.55;;
72261;SDS011;60173;52.112;8.648;2023-03-07T00:17:51;44.10;;;21.08;;
72261;SDS011;60173;52.112;8.648;2023-03-07T00:20:17;39.33;;;20.77;;
72261;SDS011;60173;52.112;8.648;2023-03-07T00:22:43;42.90;;;21.80;;
72261;SDS011;60173;52.112;8.648;2023-03-07T00:25:10;47.53;;;22.83;;
72261;SDS011;60173;52.112;8.648;2023-03-07T00:27:36;41.45;;;21.17;;
72261;SDS011;60173;52.112;8.648;2023-03-07T00:30:03;47.88;;;22.85;;
72261;SDS011;60173;52.112;8.648;2023-03-07T00:32:30;45.38;;;22.92;;
72261;SDS011;60173;52.112;8.648;2023-03-07T00:34:57;42.67;;;22.15;;
72261;SDS011;60173;52.112;8.648;2023-03-07T00:37:24;41.40;;;21.70;;
72261;SDS011;60173;52.112;8.648;2023-03-07T00:39:51;41.53;;;21.45;;
72261;SDS011;60173;52.112;8.648;2023-03-07T00:42:17;41.42;;;20.35;;
72261;SDS011;60173;52.112;8.648;2023-03-07T00:44:43;38.95;;;20.98;;
72261;SDS011;60173;52.112;8.648;2023-03-07T00:47:10;40.92;;;20.73;;
72261;SDS011;60173;52.112;8.648;2023-03-07T00:49:36;36.28;;;20.63;;
72261;SDS011;60173;52.112;8.648;2023-03-07T00:52:02;38.70;;;20.17;;
72261;SDS011;60173;52.112;8.648;2023-03-07T00:54:29;40.33;;;20.23;;
72261;SDS011;60173;52.112;8.648;2023-03-07T00:56:55;39.28;;;20.75;;
72261;SDS011;60173;52.112;8.648;2023-03-07T00:59:21;38.30;;;21.02;;
72261;SDS011;60173;52.112;8.648;2023-03-07T01:01:48;36.83;;;19.30;;
72261;SDS011;60173;52.112;8.648;2023-03-07T01:04:14;38.47;;;21.20;;
72261;SDS011;60173;52.112;8.648;2023-03-07T01:06:40;38.38;;;20.33;;
72261;SDS011;60173;52.112;8.648;2023-03-07T01:09:07;36.03;;;19.90;;
72261;SDS011;60173;52.112;8.648;2023-03-07T01:11:33;38.90;;;20.90;;
72261;SDS011;60173;52.112;8.648;2023-03-07T01:14:01;36.90;;;20.20;;
72261;SDS011;60173;52.112;8.648;2023-03-07T01:16:33;36.92;;;20.17;;
72261;SDS011;60173;52.112;8.648;2023-03-07T01:19:02;36.92;;;21.05;;
72261;SDS011;60173;52.112;8.648;2023-03-07T01:21:31;39.75;;;21.20;;
72261;SDS011;60173;52.112;8.648;2023-03-07T01:24:06;33.75;;;19.77;;
72261;SDS011;60173;52.112;8.648;2023-03-07T01:26:33;36.97;;;20.83;;
72261;SDS011;60173;52.112;8.648;2023-03-07T01:29:02;38.70;;;20.55;;
72261;SDS011;60173;52.112;8.648;2023-03-07T01:31:31;38.42;;;21.05;;
72261;SDS011;60173;52.112;8.648;2023-03-07T01:33:58;35.75;;;20.65;;
72261;SDS011;60173;52.112;8.648;2023-03-07T01:36:29;38.33;;;20.55;;
72261;SDS011;60173;52.112;8.648;2023-03-07T01:38:58;35.25;;;19.98;;
72261;SDS011;60173;52.112;8.648;2023-03-07T01:41:26;36.45;;;20.70;;
72261;SDS011;60173;52.112;8.648;2023-03-07T01:43:53;33.45;;;19.50;;
72261;SDS011;60173;52.112;8.648;2023-03-07T01:46:40;35.70;;;20.38;;
72261;SDS011;60173;52.112;8.648;2023-03-07T01:49:24;36.95;;;20.55;;
72261;SDS011;60173;52.112;8.648;2023-03-07T01:52:05;36.05;;;20.15;;
72261;SDS011;60173;52.112;8.648;2023-03-07T01:54:33;35.83;;;19.35;;
72261;SDS011;60173;52.112;8.648;2023-03-07T01:57:03;33.60;;;20.13;;
72261;SDS011;60173;52.112;8.648;2023-03-07T01:59:30;36.40;;;19.90;;
72261;SDS011;60173;52.112;8.648;2023-03-07T02:02:00;35.72;;;21.02;;
72261;SDS011;60173;52.112;8.648;2023-03-07T02:04:33;37.95;;;21.52;;
72261;SDS011;60173;52.112;8.648;2023-03-07T02:07:05;36.90;;;20.33;;
72261;SDS011;60173;52.112;8.648;2023-03-07T02:09:34;38.13;;;21.70;;
72261;SDS011;60173;52.112;8.648;2023-03-07T02:12:01;35.17;;;21.63;;
72261;SDS011;60173;52.112;8.648;2023-03-07T02:14:29;43.65;;;22.92;;
72261;SDS011;60173;52.112;8.648;2023-03-07T02:16:55;40.42;;;22.52;;
72261;SDS011;60173;52.112;8.648;2023-03-07T02:22:27;41.90;;;22.90;;
72261;SDS011;60173;52.112;8.648;2023-03-07T02:24:55;39.25;;;21.63;;
72261;SDS011;60173;52.112;8.648;2023-03-07T02:27:26;36.45;;;20.73;;
72261;SDS011;60173;52.112;8.648;2023-03-07T02:29:55;39.47;;;22.50;;
72261;SDS011;60173;52.112;8.648;2023-03-07T02:32:21;37.75;;;22.05;;
72261;SDS011;60173;52.112;8.648;2023-03-07T02:34:48;38.13;;;22.55;;
72261;SDS011;60173;52.112;8.648;2023-03-07T02:39:45;38.75;;;22.33;;
72261;SDS011;60173;52.112;8.648;2023-03-07T02:42:14;37.33;;;21.52;;
72261;SDS011;60173;52.112;8.648;2023-03-07T02:44:44;38.28;;;22.63;;
72261;SDS011;60173;52.112;8.648;2023-03-07T02:47:12;37.80;;;21.20;;
72261;SDS011;60173;52.112;8.648;2023-03-07T02:49:38;36.88;;;21.70;;
72261;SDS011;60173;52.112;8.648;2023-03-07T02:52:05;38.05;;;22.88;;
72261;SDS011;60173;52.112;8.648;2023-03-07T02:54:31;36.78;;;22.73;;
72261;SDS011;60173;52.112;8.648;2023-03-07T02:56:57;37.40;;;22.00;;
72261;SDS011;60173;52.112;8.648;2023-03-07T02:59:24;38.83;;;22.05;;
72261;SDS011;60173;52.112;8.648;2023-03-07T03:01:50;39.00;;;22.95;;
72261;SDS011;60173;52.112;8.648;2023-03-07T03:04:16;42.05;;;23.17;;
72261;SDS011;60173;52.112;8.648;2023-03-07T03:06:43;38.50;;;23.13;;
72261;SDS011;60173;52.112;8.648;2023-03-07T03:09:09;40.28;;;23.77;;
72261;SDS011;60173;52.112;8.648;2023-03-07T03:11:35;39.58;;;24.17;;
72261;SDS011;60173;52.112;8.648;2023-03-07T03:14:02;43.30;;;25.55;;
72261;SDS011;60173;52.112;8.648;2023-03-07T03:16:28;39.60;;;24.30;;
72261;SDS011;60173;52.112;8.648;2023-03-07T03:18:55;42.35;;;25.20;;
72261;SDS011;60173;52.112;8.648;2023-03-07T03:21:21;44.05;;;26.38;;
72261;SDS011;60173;52.112;8.648;2023-03-07T03:23:47;40.88;;;24.35;;
72261;SDS011;60173;52.112;8.648;2023-03-07T03:26:14;44.40;;;25.17;;
72261;SDS011;60173;52.112;8.648;2023-03-07T03:28:40;42.53;;;26.27;;
72261;SDS011;60173;52.112;8.648;2023-03-07T03:31:07;47.55;;;26.92;;
72261;SDS011;60173;52.112;8.648;2023-03-07T03:33:35;45.08;;;26.38;;
72261;SDS011;60173;52.112;8.648;2023-03-07T03:36:06;45.38;;;26.77;;
72261;SDS011;60173;52.112;8.648;2023-03-07T03:38:34;46.25;;;26.95;;
72261;SDS011;60173;52.112;8.648;2023-03-07T03:41:04;47.55;;;28.17;;
72261;SDS011;60173;52.112;8.648;2023-03-07T03:43:33;48.50;;;28.95;;
72261;SDS011;60173;52.112;8.648;2023-03-07T03:45:59;50.03;;;29.38;;
72261;SDS011;60173;52.112;8.648;2023-03-07T03:48:26;47.80;;;28.67;;
72261;SDS011;60173;52.112;8.648;2023-03-07T03:50:59;50.50;;;29.35;;
72261;SDS011;60173;52.112;8.648;2023-03-07T03:53:31;51.65;;;29.10;;
72261;SDS011;60173;52.112;8.648;2023-03-07T03:55:59;50.75;;;30.38;;
72261;SDS011;60173;52.112;8.648;2023-03-07T03:58:27;46.97;;;28.45;;
72261;SDS011;60173;52.112;8.648;2023-03-07T04:00:53;49.95;;;29.48;;
72261;SDS011;60173;52.112;8.648;2023-03-07T04:03:19;50.40;;;29.00;;
72261;SDS011;60173;52.112;8.648;2023-03-07T04:05:46;44.75;;;26.88;;
72261;SDS011;60173;52.112;8.648;2023-03-07T04:08:12;43.70;;;27.77;;
72261;SDS011;60173;52.112;8.648;2023-03-07T04:10:38;43.33;;;26.75;;
72261;SDS011;60173;52.112;8.648;2023-03-07T04:13:05;44.83;;;27.25;;
72261;SDS011;60173;52.112;8.648;2023-03-07T04:15:31;41.45;;;26.27;;
72261;SDS011;60173;52.112;8.648;2023-03-07T04:17:57;44.72;;;25.90;;
72261;SDS011;60173;52.112;8.648;2023-03-07T04:20:24;42.15;;;26.27;;
72261;SDS011;60173;52.112;8.648;2023-03-07T04:22:50;40.20;;;23.58;;
72261;SDS011;60173;52.112;8.648;2023-03-07T04:25:17;40.97;;;25.42;;
72261;SDS011;60173;52.112;8.648;2023-03-07T04:27:43;42.78;;;26.13;;
72261;SDS011;60173;52.112;8.648;2023-03-07T04:30:10;38.78;;;23.10;;
72261;SDS011;60173;52.112;8.648;2023-03-07T04:32:36;32.80;;;20.92;;
72261;SDS011;60173;52.112;8.648;2023-03-07T04:35:03;34.90;;;20.15;;
72261;SDS011;60173;52.112;8.648;2023-03-07T04:37:29;27.30;;;17.58;;
72261;SDS011;60173;52.112;8.648;2023-03-07T04:39:56;35.22;;;21.90;;
72261;SDS011;60173;52.112;8.648;2023-03-07T04:42:22;34.08;;;22.00;;
72261;SDS011;60173;52.112;8.648;2023-03-07T04:44:48;33.05;;;20.80;;
72261;SDS011;60173;52.112;8.648;2023-03-07T04:47:15;30.50;;;18.90;;
72261;SDS011;60173;52.112;8.648;2023-03-07T04:49:41;28.00;;;18.00;;
72261;SDS011;60173;52.112;8.648;2023-03-07T04:52:07;29.00;;;16.60;;
72261;SDS011;60173;52.112;8.648;2023-03-07T04:54:33;25.17;;;14.23;;
72261;SDS011;60173;52.112;8.648;2023-03-07T04:57:00;18.33;;;11.85;;
72261;SDS011;60173;52.112;8.648;2023-03-07T04:59:26;15.45;;;10.80;;
72261;SDS011;60173;52.112;8.648;2023-03-07T05:01:52;15.82;;;9.82;;
72261;SDS011;60173;52.112;8.648;2023-03-07T05:04:19;14.90;;;9.98;;
72261;SDS011;60173;52.112;8.648;2023-03-07T05:06:45;14.05;;;8.75;;
72261;SDS011;60173;52.112;8.648;2023-03-07T05:09:12;12.90;;;8.57;;
72261;SDS011;60173;52.112;8.648;2023-03-07T05:11:38;17.00;;;8.77;;
72261;SDS011;60173;52.112;8.648;2023-03-07T05:14:04;12.73;;;7.95;;
72261;SDS011;60173;52.112;8.648;2023-03-07T05:16:31;11.73;;;7.38;;
72261;SDS011;60173;52.112;8.648;2023-03-07T05:18:57;10.73;;;7.45;;
72261;SDS011;60173;52.112;8.648;2023-03-07T05:21:23;11.77;;;6.97;;
72261;SDS011;60173;52.112;8.648;2023-03-07T05:23:50;13.20;;;7.03;;
72261;SDS011;60173;52.112;8.648;2023-03-07T05:26:16;9.90;;;6.63;;
72261;SDS011;60173;52.112;8.648;2023-03-07T05:28:42;13.00;;;7.20;;
72261;SDS011;60173;52.112;8.648;2023-03-07T05:31:09;12.02;;;6.82;;
72261;SDS011;60173;52.112;8.648;2023-03-07T05:33:35;12.45;;;7.72;;
72261;SDS011;60173;52.112;8.648;2023-03-07T05:36:02;14.82;;;8.10;;
72261;SDS011;60173;52.112;8.648;2023-03-07T05:38:28;13.35;;;7.75;;
72261;SDS011;60173;52.112;8.648;2023-03-07T05:40:54;14.15;;;7.93;;
72261;SDS011;60173;52.112;8.648;2023-03-07T05:43:21;15.70;;;7.43;;
72261;SDS011;60173;52.112;8.648;2023-03-07T05:45:47;14.82;;;8.55;;
72261;SDS011;60173;52.112;8.648;2023-03-07T05:48:13;16.15;;;8.07;;
72261;SDS011;60173;52.112;8.648;2023-03-07T05:50:40;14.13;;;7.45;;
72261;SDS011;60173;52.112;8.648;2023-03-07T05:53:06;15.13;;;8.18;;
72261;SDS011;60173;52.112;8.648;2023-03-07T05:55:33;11.05;;;6.65;;
72261;SDS011;60173;52.112;8.648;2023-03-07T05:57:59;11.90;;;6.72;;
72261;SDS011;60173;52.112;8.648;2023-03-07T06:00:26;11.20;;;6.20;;
72261;SDS011;60173;52.112;8.648;2023-03-07T06:02:52;13.05;;;6.30;;
72261;SDS011;60173;52.112;8.648;2023-03-07T06:05:19;12.00;;;5.90;;
72261;SDS011;60173;52.112;8.648;2023-03-07T06:07:45;11.20;;;5.70;;
72261;SDS011;60173;52.112;8.648;2023-03-07T06:10:12;10.63;;;5.22;;
72261;SDS011;60173;52.112;8.648;2023-03-07T06:12:38;11.40;;;5.60;;
72261;SDS011;60173;52.112;8.648;2023-03-07T06:15:05;13.82;;;5.90;;
72261;SDS011;60173;52.112;8.648;2023-03-07T06:17:31;9.45;;;4.97;;
72261;SDS011;60173;52.112;8.648;2023-03-07T06:19:58;10.25;;;4.90;;
72261;SDS011;60173;52.112;8.648;2023-03-07T06:22:24;9.50;;;4.50;;
72261;SDS011;60173;52.112;8.648;2023-03-07T06:24:50;11.65;;;4.88;;
72261;SDS011;60173;52.112;8.648;2023-03-07T06:27:17;10.27;;;4.07;;
72261;SDS011;60173;52.112;8.648;2023-03-07T06:29:43;7.90;;;3.70;;
72261;SDS011;60173;52.112;8.648;2023-03-07T06:32:09;8.00;;;4.00;;
72261;SDS011;60173;52.112;8.648;2023-03-07T06:34:36;6.55;;;3.50;;
72261;SDS011;60173;52.112;8.648;2023-03-07T06:37:02;6.22;;;3.60;;
72261;SDS011;60173;52.112;8.648;2023-03-07T06:39:28;8.45;;;3.60;;
72261;SDS011;60173;52.112;8.648;2023-03-07T06:41:56;7.38;;;3.78;;
72261;SDS011;60173;52.112;8.648;2023-03-07T06:44:23;10.20;;;4.03;;
72261;SDS011;60173;52.112;8.648;2023-03-07T06:46:49;8.45;;;3.42;;
72261;SDS011;60173;52.112;8.648;2023-03-07T06:49:15;6.45;;;3.35;;
72261;SDS011;60173;52.112;8.648;2023-03-07T06:51:42;7.35;;;3.13;;
72261;SDS011;60173;52.112;8.648;2023-03-07T06:54:08;9.38;;;3.70;;
72261;SDS011;60173;52.112;8.648;2023-03-07T06:56:34;8.98;;;3.58;;
72261;SDS011;60173;52.112;8.648;2023-03-07T06:59:01;11.82;;;4.43;;
72261;SDS011;60173;52.112;8.648;2023-03-07T07:01:27;10.30;;;4.15;;
72261;SDS011;60173;52.112;8.648;2023-03-07T07:03:53;12.23;;;4.65;;
72261;SDS011;60173;52.112;8.648;2023-03-07T07:06:19;8.10;;;4.40;;
72261;SDS011;60173;52.112;8.648;2023-03-07T07:08:46;11.18;;;4.70;;
72261;SDS011;60173;52.112;8.648;2023-03-07T07:11:12;10.32;;;4.78;;
72261;SDS011;60173;52.112;8.648;2023-03-07T07:13:39;11.93;;;4.50;;
72261;SDS011;60173;52.112;8.648;2023-03-07T07:16:06;12.25;;;5.65;;
72261;SDS011;60173;52.112;8.648;2023-03-07T07:18:33;10.90;;;5.63;;
72261;SDS011;60173;52.112;8.648;2023-03-07T07:21:00;12.65;;;5.70;;
72261;SDS011;60173;52.112;8.648;2023-03-07T07:23:26;15.73;;;6.75;;
72261;SDS011;60173;52.112;8.648;2023-03-07T07:25:53;13.55;;;6.00;;
72261;SDS011;60173;52.112;8.648;2023-03-07T07:28:19;11.13;;;6.40;;
72261;SDS011;60173;52.112;8.648;2023-03-07T07:30:45;11.85;;;6.40;;
72261;SDS011;60173;52.112;8.648;2023-03-07T07:33:12;11.70;;;6.55;;
72261;SDS011;60173;52.112;8.648;2023-03-07T07:35:38;12.10;;;6.53;;
72261;SDS011;60173;52.112;8.648;2023-03-07T07:38:07;15.63;;;6.30;;
72261;SDS011;60173;52.112;8.648;2023-03-07T07:40:34;14.32;;;6.93;;
72261;SDS011;60173;52.112;8.648;2023-03-07T07:43:00;14.85;;;6.03;;
72261;SDS011;60173;52.112;8.648;2023-03-07T07:45:26;11.07;;;5.88;;
72261;SDS011;60173;52.112;8.648;2023-03-07T07:47:53;9.45;;;5.20;;
72261;SDS011;60173;52.112;8.648;2023-03-07T07:50:19;10.88;;;5.25;;
72261;SDS011;60173;52.112;8.648;2023-03-07T07:52:47;8.73;;;5.53;;
72261;SDS011;60173;52.112;8.648;2023-03-07T07:55:14;8.68;;;4.90;;
72261;SDS011;60173;52.112;8.648;2023-03-07T07:57:41;7.68;;;4.82;;
72261;SDS011;60173;52.112;8.648;2023-03-07T08:00:08;8.20;;;4.07;;
72261;SDS011;60173;52.112;8.648;2023-03-07T08:02:37;9.90;;;3.65;;
72261;SDS011;60173;52.112;8.648;2023-03-07T08:05:07;8.18;;;3.60;;
72261;SDS011;60173;52.112;8.648;2023-03-07T08:07:34;7.45;;;3.63;;
72261;SDS011;60173;52.112;8.648;2023-03-07T08:10:01;6.38;;;3.42;;
72261;SDS011;60173;52.112;8.648;2023-03-07T08:12:28;5.13;;;3.40;;
72261;SDS011;60173;52.112;8.648;2023-03-07T08:14:55;5.57;;;2.83;;
72261;SDS011;60173;52.112;8.648;2023-03-07T08:17:21;6.35;;;3.47;;
72261;SDS011;60173;52.112;8.648;2023-03-07T08:19:47;8.02;;;3.30;;
72261;SDS011;60173;52.112;8.648;2023-03-07T08:22:14;8.00;;;3.25;;
72261;SDS011;60173;52.112;8.648;2023-03-07T08:24:40;5.57;;;2.75;;
72261;SDS011;60173;52.112;8.648;2023-03-07T08:27:06;5.70;;;3.00;;
72261;SDS011;60173;52.112;8.648;2023-03-07T08:29:33;6.05;;;3.38;;
72261;SDS011;60173;52.112;8.648;2023-03-07T08:32:00;6.82;;;3.00;;
72261;SDS011;60173;52.112;8.648;2023-03-07T08:34:26;7.88;;;3.13;;
72261;SDS011;60173;52.112;8.648;2023-03-07T08:36:52;9.13;;;3.45;;
72261;SDS011;60173;52.112;8.648;2023-03-07T08:39:19;8.07;;;3.13;;
72261;SDS011;60173;52.112;8.648;2023-03-07T08:41:45;6.57;;;3.15;;
72261;SDS011;60173;52.112;8.648;2023-03-07T08:44:11;6.28;;;3.20;;
72261;SDS011;60173;52.112;8.648;2023-03-07T08:46:38;9.05;;;4.50;;
72261;SDS011;60173;52.112;8.648;2023-03-07T08:49:04;4.97;;;3.40;;
72261;SDS011;60173;52.112;8.648;2023-03-07T08:51:30;6.40;;;3.25;;
72261;SDS011;60173;52.112;8.648;2023-03-07T08:53:57;4.78;;;3.03;;
72261;SDS011;60173;52.112;8.648;2023-03-07T08:56:23;3.83;;;2.88;;
72261;SDS011;60173;52.112;8.648;2023-03-07T08:58:53;7.05;;;3.08;;
72261;SDS011;60173;52.112;8.648;2023-03-07T09:01:19;3.15;;;2.15;;
72261;SDS011;60173;52.112;8.648;2023-03-07T09:03:46;7.72;;;2.58;;
72261;SDS011;60173;52.112;8.648;2023-03-07T09:06:16;4.57;;;2.30;;
72261;SDS011;60173;52.112;8.648;2023-03-07T09:08:44;4.45;;;2.33;;
72261;SDS011;60173;52.112;8.648;2023-03-07T09:11:11;5.60;;;2.10;;
72261;SDS011;60173;52.112;8.648;2023-03-07T09:13:38;4.50;;;2.55;;
72261;SDS011;60173;52.112;8.648;2023-03-07T09:16:16;4.05;;;2.10;;
72261;SDS011;60173;52.112;8.648;2023-03-07T09:18:43;6.40;;;2.15;;
72261;SDS011;60173;52.112;8.648;2023-03-07T09:21:09;2.80;;;1.70;;
72261;SDS011;60173;52.112;8.648;2023-03-07T09:23:35;2.65;;;1.88;;
72261;SDS011;60173;52.112;8.648;2023-03-07T09:26:02;5.50;;;1.98;;
72261;SDS011;60173;52.112;8.648;2023-03-07T09:28:28;3.50;;;1.88;;
72261;SDS011;60173;52.112;8.648;2023-03-07T09:30:55;1.90;;;1.50;;
72261;SDS011;60173;52.112;8.648;2023-03-07T09:33:21;2.72;;;1.50;;
72261;SDS011;60173;52.112;8.648;2023-03-07T09:35:47;6.88;;;2.03;;
72261;SDS011;60173;52.112;8.648;2023-03-07T09:38:14;3.40;;;1.58;;
72261;SDS011;60173;52.112;8.648;2023-03-07T09:40:42;5.38;;;1.80;;
72261;SDS011;60173;52.112;8.648;2023-03-07T09:43:19;4.43;;;1.90;;
72261;SDS011;60173;52.112;8.648;2023-03-07T09:48:50;3.28;;;1.70;;
72261;SDS011;60173;52.112;8.648;2023-03-07T09:51:38;5.07;;;2.10;;
72261;SDS011;60173;52.112;8.648;2023-03-07T09:54:14;2.53;;;2.00;;
72261;SDS011;60173;52.112;8.648;2023-03-07T09:56:46;5.63;;;2.17;;
72261;SDS011;60173;52.112;8.648;2023-03-07T10:01:55;2.92;;;1.65;;
72261;SDS011;60173;52.112;8.648;2023-03-07T10:04:49;3.75;;;1.58;;
72261;SDS011;60173;52.112;8.648;2023-03-07T10:07:17;3.35;;;1.50;;
72261;SDS011;60173;52.112;8.648;2023-03-07T10:09:46;1.95;;;1.65;;
72261;SDS011;60173;52.112;8.648;2023-03-07T10:12:24;3.05;;;1.88;;
72261;SDS011;60173;52.112;8.648;2023-03-07T10:15:58;3.33;;;1.75;;
72261;SDS011;60173;52.112;8.648;2023-03-07T10:26:31;3.83;;;2.20;;
72261;SDS011;60173;52.112;8.648;2023-03-07T10:29:00;4.75;;;3.10;;
72261;SDS011;60173;52.112;8.648;2023-03-07T10:31:37;4.78;;;2.53;;
72261;SDS011;60173;52.112;8.648;2023-03-07T10:36:55;4.10;;;3.08;;
72261;SDS011;60173;52.112;8.648;2023-03-07T10:39:50;4.97;;;2.80;;
72261;SDS011;60173;52.112;8.648;2023-03-07T10:42:20;5.78;;;2.28;;
72261;SDS011;60173;52.112;8.648;2023-03-07T10:44:47;7.07;;;3.13;;
72261;SDS011;60173;52.112;8.648;2023-03-07T10:47:18;5.25;;;2.70;;
72261;SDS011;60173;52.112;8.648;2023-03-07T10:49:50;4.38;;;2.40;;
72261;SDS011;60173;52.112;8.648;2023-03-07T10:55:27;5.47;;;2.85;;
72261;SDS011;60173;52.112;8.648;2023-03-07T10:58:22;6.63;;;3.00;;
72261;SDS011;60173;52.112;8.648;2023-03-07T11:00:58;4.75;;;2.30;;
72261;SDS011;60173;52.112;8.648;2023-03-07T11:03:28;2.92;;;2.00;;
72261;SDS011;60173;52.112;8.648;2023-03-07T11:06:30;3.85;;;2.22;;
72261;SDS011;60173;52.112;8.648;2023-03-07T11:08:58;4.63;;;2.10;;
72261;SDS011;60173;52.112;8.648;2023-03-07T11:11:34;6.80;;;2.10;;
72261;SDS011;60173;52.112;8.648;2023-03-07T11:14:03;6.25;;;2.35;;
72261;SDS011;60173;52.112;8.648;2023-03-07T11:16:38;4.43;;;2.40;;
72261;SDS011;60173;52.112;8.648;2023-03-07T11:19:25;4.40;;;2.60;;
72261;SDS011;60173;52.112;8.648;2023-03-07T11:21:53;4.97;;;2.67;;
72261;SDS011;60173;52.112;8.648;2023-03-07T11:24:25;3.85;;;2.70;;
72261;SDS011;60173;52.112;8.648;2023-03-07T11:26:56;4.07;;;2.90;;
72261;SDS011;60173;52.112;8.648;2023-03-07T11:29:24;7.40;;;3.45;;
72261;SDS011;60173;52.112;8.648;2023-03-07T11:34:25;6.47;;;3.10;;
72261;SDS011;60173;52.112;8.648;2023-03-07T11:39:44;4.75;;;2.90;;
72261;SDS011;60173;52.112;8.648;2023-03-07T11:42:22;3.80;;;2.42;;
72261;SDS011;60173;52.112;8.648;2023-03-07T11:44:58;3.05;;;1.85;;
72261;SDS011;60173;52.112;8.648;2023-03-07T11:47:38;3.38;;;2.08;;
72261;SDS011;60173;52.112;8.648;2023-03-07T11:50:22;2.85;;;1.70;;
72261;SDS011;60173;52.112;8.648;2023-03-07T11:58:27;3.95;;;1.60;;
72261;SDS011;60173;52.112;8.648;2023-03-07T12:01:26;2.20;;;1.40;;
72261;SDS011;60173;52.112;8.648;2023-03-07T12:12:06;2.88;;;1.98;;
72261;SDS011;60173;52.112;8.648;2023-03-07T12:20:24;3.17;;;1.90;;
72261;SDS011;60173;52.112;8.648;2023-03-07T12:25:40;2.90;;;2.13;;
72261;SDS011;60173;52.112;8.648;2023-03-07T12:30:56;4.07;;;2.67;;
72261;SDS011;60173;52.112;8.648;2023-03-07T12:33:45;5.00;;;2.53;;
72261;SDS011;60173;52.112;8.648;2023-03-07T12:41:56;4.38;;;2.53;;
72261;SDS011;60173;52.112;8.648;2023-03-07T12:44:40;3.00;;;2.40;;
72261;SDS011;60173;52.112;8.648;2023-03-07T12:47:18;3.80;;;2.72;;
72261;SDS011;60173;52.112;8.648;2023-03-07T12:56:01;3.90;;;2.25;;
72261;SDS011;60173;52.112;8.648;2023-03-07T13:04:20;4.80;;;2.42;;
72261;SDS011;60173;52.112;8.648;2023-03-07T13:06:52;3.63;;;2.40;;
72261;SDS011;60173;52.112;8.648;2023-03-07T13:09:25;5.55;;;2.40;;
72261;SDS011;60173;52.112;8.648;2023-03-07T13:12:20;3.67;;;2.40;;
72261;SDS011;60173;52.112;8.648;2023-03-07T13:14:58;4.28;;;2.38;;
72261;SDS011;60173;52.112;8.648;2023-03-07T13:19:57;5.38;;;2.65;;
72261;SDS011;60173;52.112;8.648;2023-03-07T13:24:54;4.65;;;2.60;;
72261;SDS011;60173;52.112;8.648;2023-03-07T13:27:44;5.20;;;2.65;;
72261;SDS011;60173;52.112;8.648;2023-03-07T13:30:20;5.15;;;2.95;;
72261;SDS011;60173;52.112;8.648;2023-03-07T13:38:03;6.20;;;2.80;;
72261;SDS011;60173;52.112;8.648;2023-03-07T13:41:01;3.80;;;2.53;;
72261;SDS011;60173;52.112;8.648;2023-03-07T13:45:55;4.15;;;2.22;;
72261;SDS011;60173;52.112;8.648;2023-03-07T13:53:19;4.80;;;2.40;;
72261;SDS011;60173;52.112;8.648;2023-03-07T13:56:00;2.70;;;2.25;;
72261;SDS011;60173;52.112;8.648;2023-03-07T13:59:17;5.18;;;2.40;;
72261;SDS011;60173;52.112;8.648;2023-03-07T14:04:07;4.00;;;2.00;;
72261;SDS011;60173;52.112;8.648;2023-03-07T14:07:10;4.22;;;2.00;;
72261;SDS011;60173;52.112;8.648;2023-03-07T14:09:45;4.18;;;2.20;;
72261;SDS011;60173;52.112;8.648;2023-03-07T14:12:35;6.05;;;2.60;;
72261;SDS011;60173;52.112;8.648;2023-03-07T14:15:28;5.97;;;2.22;;
72261;SDS011;60173;52.112;8.648;2023-03-07T14:23:46;4.75;;;2.70;;
72261;SDS011;60173;52.112;8.648;2023-03-07T14:28:51;4.00;;;2.58;;
72261;SDS011;60173;52.112;8.648;2023-03-07T14:31:25;6.30;;;3.00;;
72261;SDS011;60173;52.112;8.648;2023-03-07T14:33:55;5.07;;;2.83;;
72261;SDS011;60173;52.112;8.648;2023-03-07T14:36:29;5.32;;;2.78;;
72261;SDS011;60173;52.112;8.648;2023-03-07T14:38:57;4.28;;;2.83;;
72261;SDS011;60173;52.112;8.648;2023-03-07T14:41:31;5.70;;;2.75;;
72261;SDS011;60173;52.112;8.648;2023-03-07T14:52:16;5.88;;;2.30;;
72261;SDS011;60173;52.112;8.648;2023-03-07T14:54:56;7.10;;;2.85;;
72261;SDS011;60173;52.112;8.648;2023-03-07T14:57:32;3.60;;;2.13;;
72261;SDS011;60173;52.112;8.648;2023-03-07T15:00:13;6.95;;;2.47;;
72261;SDS011;60173;52.112;8.648;2023-03-07T15:02:50;4.90;;;1.92;;
72261;SDS011;60173;52.112;8.648;2023-03-07T15:06:10;4.90;;;2.70;;
72261;SDS011;60173;52.112;8.648;2023-03-07T15:14:01;3.70;;;2.03;;
72261;SDS011;60173;52.112;8.648;2023-03-07T15:19:16;5.30;;;2.38;;
72261;SDS011;60173;52.112;8.648;2023-03-07T15:21:53;5.03;;;2.35;;
72261;SDS011;60173;52.112;8.648;2023-03-07T15:24:36;4.72;;;2.55;;
72261;SDS011;60173;52.112;8.648;2023-03-07T15:27:04;5.85;;;2.72;;
72261;SDS011;60173;52.112;8.648;2023-03-07T15:29:31;9.63;;;3.15;;
72261;SDS011;60173;52.112;8.648;2023-03-07T15:31:59;4.97;;;3.03;;
72261;SDS011;60173;52.112;8.648;2023-03-07T15:34:32;4.55;;;2.60;;
72261;SDS011;60173;52.112;8.648;2023-03-07T15:39:53;5.13;;;1.95;;
72261;SDS011;60173;52.112;8.648;2023-03-07T15:45:36;7.85;;;2.80;;
72261;SDS011;60173;52.112;8.648;2023-03-07T15:55:59;10.23;;;3.15;;
72261;SDS011;60173;52.112;8.648;2023-03-07T15:58:28;7.95;;;2.53;;
72261;SDS011;60173;52.112;8.648;2023-03-07T16:01:05;9.55;;;2.88;;
72261;SDS011;60173;52.112;8.648;2023-03-07T16:03:51;10.52;;;3.97;;
72261;SDS011;60173;52.112;8.648;2023-03-07T16:09:14;14.27;;;3.13;;
72261;SDS011;60173;52.112;8.648;2023-03-07T16:11:41;10.75;;;3.03;;
72261;SDS011;60173;52.112;8.648;2023-03-07T16:14:13;10.88;;;2.78;;
72261;SDS011;60173;52.112;8.648;2023-03-07T16:16:47;8.27;;;2.72;;
72261;SDS011;60173;52.112;8.648;2023-03-07T16:19:13;10.02;;;3.17;;
72261;SDS011;60173;52.112;8.648;2023-03-07T16:21:40;10.88;;;3.13;;
72261;SDS011;60173;52.112;8.648;2023-03-07T16:24:06;11.77;;;2.97;;
72261;SDS011;60173;52.112;8.648;2023-03-07T16:26:33;9.32;;;3.75;;
72261;SDS011;60173;52.112;8.648;2023-03-07T16:29:00;11.50;;;3.60;;
72261;SDS011;60173;52.112;8.648;2023-03-07T16:31:26;10.65;;;3.25;;
72261;SDS011;60173;52.112;8.648;2023-03-07T16:33:53;11.50;;;3.10;;
72261;SDS011;60173;52.112;8.648;2023-03-07T16:36:19;6.20;;;2.80;;
72261;SDS011;60173;52.112;8.648;2023-03-07T16:38:46;13.80;;;2.72;;
72261;SDS011;60173;52.112;8.648;2023-03-07T16:41:16;7.18;;;2.70;;
72261;SDS011;60173;52.112;8.648;2023-03-07T16:43:44;8.00;;;2.80;;
72261;SDS011;60173;52.112;8.648;2023-03-07T16:46:13;8.15;;;3.35;;
72261;SDS011;60173;52.112;8.648;2023-03-07T16:48:41;10.63;;;3.90;;
72261;SDS011;60173;52.112;8.648;2023-03-07T16:51:13;7.68;;;3.97;;
72261;SDS011;60173;52.112;8.648;2023-03-07T16:53:44;12.43;;;4.65;;
72261;SDS011;60173;52.112;8.648;2023-03-07T16:56:31;11.68;;;5.70;;
72261;SDS011;60173;52.112;8.648;2023-03-07T16:58:59;10.75;;;6.15;;
72261;SDS011;60173;52.112;8.648;2023-03-07T17:01:26;12.88;;;5.85;;
72261;SDS011;60173;52.112;8.648;2023-03-07T17:03:53;9.95;;;5.25;;
72261;SDS011;60173;52.112;8.648;2023-03-07T17:06:20;9.45;;;4.90;;